createdAt,value
2018-09-20T00:00:15.566Z,79.82
2018-09-20T00:02:45.368Z,80.10
2018-09-20T00:05:15.168Z,80.10
2018-09-20T00:07:45.032Z,79.87
2018-09-20T00:10:14.828Z,80.43
2018-09-20T00:12:44.667Z,79.75
2018-09-20T00:15:14.914Z,80.33
2018-09-20T00:17:44.737Z,80.39
2018-09-20T00:20:14.564Z,80.16
2018-09-20T00:22:44.420Z,80.83
2018-09-20T00:25:14.244Z,80.69
2018-09-20T00:27:44.085Z,80.37
2018-09-20T00:30:14.178Z,80.31
2018-09-20T00:32:44.042Z,79.77
2018-09-20T00:35:13.840Z,80.10
2018-09-20T00:37:43.618Z,79.30
2018-09-20T00:40:13.500Z,79.87
2018-09-20T00:42:43.308Z,79.55
2018-09-20T00:45:13.106Z,79.87
2018-09-20T00:47:42.922Z,79.79
2018-09-20T00:50:12.731Z,79.30
2018-09-20T00:52:42.547Z,79.72
2018-09-20T00:55:12.375Z,79.52
2018-09-20T00:57:42.264Z,79.82
2018-09-20T01:00:12.064Z,79.50
2018-09-20T01:02:41.957Z,79.67
2018-09-20T01:05:11.784Z,79.51
2018-09-20T01:07:41.759Z,80.11
2018-09-20T01:10:11.619Z,80.43
2018-09-20T01:12:41.405Z,80.41
2018-09-20T01:15:11.242Z,80.55
2018-09-20T01:17:41.348Z,80.89
2018-09-20T01:20:11.196Z,80.83
2018-09-20T01:22:41.300Z,80.93
2018-09-20T01:25:11.126Z,80.72
2018-09-20T01:27:41.614Z,80.51
2018-09-20T01:30:11.400Z,80.54
2018-09-20T01:32:41.210Z,80.44
2018-09-20T01:35:11.046Z,80.53
2018-09-20T01:37:40.870Z,80.86
2018-09-20T01:40:10.662Z,80.61
2018-09-20T01:42:40.472Z,81.06
2018-09-20T01:45:10.636Z,80.58
2018-09-20T01:47:40.488Z,80.64
2018-09-20T01:50:10.397Z,80.62
2018-09-20T01:52:40.248Z,81.10
2018-09-20T01:56:39.392Z,80.99
2018-09-20T01:59:09.286Z,81.49
2018-09-20T02:01:39.418Z,82.11
2018-09-20T02:04:09.271Z,81.80
2018-09-20T02:06:39.078Z,82.20
2018-09-20T02:09:10.734Z,82.33
2018-09-20T02:11:40.970Z,83.16
2018-09-20T02:14:10.815Z,83.43
2018-09-20T02:16:40.628Z,82.50
2018-09-20T02:19:10.474Z,82.57
2018-09-20T02:21:40.338Z,82.41
2018-09-20T02:24:10.140Z,80.71
2018-09-20T02:26:39.914Z,80.89
2018-09-20T02:29:10.056Z,81.00
2018-09-20T02:31:39.874Z,82.18
2018-09-20T02:34:09.692Z,81.79
2018-09-20T02:36:39.534Z,82.43
2018-09-20T02:39:10.459Z,83.02
2018-09-20T02:41:40.272Z,83.69
2018-09-20T02:44:10.600Z,83.45
2018-09-20T02:46:40.419Z,83.46
2018-09-20T02:49:10.271Z,82.54
2018-09-20T02:51:40.185Z,83.16
2018-09-20T02:54:10.133Z,83.35
2018-09-20T02:56:39.908Z,83.41
2018-09-20T02:59:09.856Z,83.39
2018-09-20T03:01:39.923Z,83.32
2018-09-20T03:04:09.750Z,83.82
2018-09-20T03:06:39.574Z,83.44
2018-09-20T03:09:11.212Z,83.41
2018-09-20T03:11:41.050Z,83.94
2018-09-20T03:14:10.862Z,83.34
2018-09-20T03:16:41.506Z,83.49
2018-09-20T03:19:11.275Z,83.53
2018-09-20T03:21:41.110Z,83.58
2018-09-20T03:24:10.934Z,83.82
2018-09-20T03:26:41.118Z,83.98
2018-09-20T03:29:10.963Z,84.04
2018-09-20T03:31:40.789Z,84.00
2018-09-20T03:34:10.988Z,84.07
2018-09-20T03:36:40.828Z,84.22
2018-09-20T03:39:12.090Z,84.61
2018-09-20T03:41:42.321Z,84.24
2018-09-20T03:44:12.439Z,84.20
2018-09-20T03:46:42.592Z,84.14
2018-09-20T03:49:12.441Z,84.04
2018-09-20T03:51:42.224Z,83.88
2018-09-20T03:54:12.478Z,84.39
2018-09-20T03:56:42.239Z,84.52
2018-09-20T03:59:12.042Z,84.78
2018-09-20T04:01:41.928Z,84.17
2018-09-20T04:04:11.737Z,84.68
2018-09-20T04:06:41.565Z,84.62
2018-09-20T04:09:12.259Z,84.22
2018-09-20T04:11:42.063Z,84.01
2018-09-20T04:14:11.885Z,84.33
2018-09-20T04:16:41.733Z,84.01
2018-09-20T04:19:11.793Z,84.15
2018-09-20T04:21:41.601Z,84.23
2018-09-20T04:24:11.383Z,84.59
2018-09-20T04:26:41.203Z,83.94
2018-09-20T04:29:11.019Z,83.90
2018-09-20T04:31:40.864Z,82.95
2018-09-20T04:34:10.917Z,83.70
2018-09-20T04:36:41.089Z,84.08
2018-09-20T04:39:11.869Z,84.17
2018-09-20T04:41:41.847Z,84.28
2018-09-20T04:44:11.643Z,84.18
2018-09-20T04:46:41.471Z,84.23
2018-09-20T04:50:12.219Z,84.15
2018-09-20T04:52:42.036Z,83.33
2018-09-20T04:55:11.876Z,83.44
2018-09-20T04:57:41.672Z,83.18
2018-09-20T05:00:11.642Z,82.78
2018-09-20T05:02:41.480Z,82.98
2018-09-20T05:05:11.628Z,82.43
2018-09-20T05:07:41.462Z,82.83
2018-09-20T05:10:11.390Z,83.27
2018-09-20T05:12:41.320Z,82.35
2018-09-20T05:15:11.535Z,83.02
2018-09-20T05:18:05.411Z,83.10
2018-09-20T05:20:35.440Z,82.21
2018-09-20T05:23:06.108Z,82.45
2018-09-20T05:25:36.500Z,83.39
2018-09-20T05:28:06.309Z,82.99
2018-09-20T05:30:36.396Z,82.48
2018-09-20T05:33:06.400Z,82.88
2018-09-20T05:35:36.302Z,82.42
2018-09-20T05:38:06.962Z,82.90
2018-09-20T05:40:37.158Z,82.69
2018-09-20T05:43:06.947Z,82.64
2018-09-20T05:45:36.814Z,82.38
2018-09-20T05:48:07.307Z,83.02
2018-09-20T05:50:37.153Z,83.07
2018-09-20T05:53:07.169Z,83.08
2018-09-20T05:55:37.009Z,82.29
2018-09-20T05:58:07.100Z,82.01
2018-09-20T06:00:36.920Z,81.56
2018-09-20T06:03:06.932Z,81.27
2018-09-20T06:05:36.821Z,81.07
2018-09-20T06:08:06.916Z,80.25
2018-09-20T06:10:36.692Z,79.98
2018-09-20T06:13:06.655Z,80.40
2018-09-20T06:15:36.845Z,80.04
2018-09-20T06:18:07.058Z,80.08
2018-09-20T06:20:36.968Z,79.81
2018-09-20T06:23:06.905Z,80.01
2018-09-20T06:25:36.764Z,79.42
2018-09-20T06:28:07.050Z,78.80
2018-09-20T06:30:36.870Z,78.68
2018-09-20T06:33:06.862Z,77.95
2018-09-20T06:38:35.522Z,78.46
2018-09-20T06:41:05.466Z,77.63
2018-09-20T06:43:35.452Z,77.91
2018-09-20T06:46:05.299Z,77.05
2018-09-20T06:48:35.324Z,77.13
2018-09-20T06:51:05.257Z,76.99
2018-09-20T06:53:35.182Z,76.83
2018-09-20T06:56:06.742Z,74.56
2018-09-20T06:58:37.166Z,73.10
2018-09-20T07:01:07.951Z,67.80
2018-09-20T07:03:38.335Z,60.79
2018-09-20T07:06:08.756Z,56.29
2018-09-20T07:08:39.139Z,53.93
2018-09-20T07:11:09.546Z,51.68
2018-09-20T07:13:39.960Z,49.62
2018-09-20T07:16:10.568Z,46.30
2018-09-20T07:18:40.890Z,45.12
2018-09-20T07:21:11.676Z,43.09
2018-09-20T07:23:41.809Z,42.06
2018-09-20T07:26:11.853Z,41.11
2018-09-20T07:28:42.299Z,38.88
2018-09-20T07:31:12.419Z,37.91
2018-09-20T07:33:42.520Z,39.83
2018-09-20T07:36:12.579Z,40.85
2018-09-20T07:38:42.659Z,39.37
2018-09-20T07:41:12.838Z,37.17
2018-09-20T07:43:43.005Z,37.26
2018-09-20T07:46:13.191Z,37.50
2018-09-20T07:48:43.251Z,36.98
2018-09-20T07:51:13.461Z,36.75
2018-09-20T07:53:43.927Z,35.94
2018-09-20T07:56:14.497Z,35.57
2018-09-20T07:58:44.641Z,35.58
2018-09-20T08:01:14.886Z,35.53
2018-09-20T08:03:45.008Z,36.63
2018-09-20T08:06:15.094Z,36.83
2018-09-20T08:08:45.587Z,37.65
2018-09-20T08:11:16.110Z,37.09
2018-09-20T08:13:46.587Z,37.52
2018-09-20T08:16:16.726Z,37.08
2018-09-20T08:18:47.507Z,39.46
2018-09-20T08:21:17.927Z,41.73
2018-09-20T08:23:48.096Z,42.76
2018-09-20T08:26:18.194Z,43.53
2018-09-20T08:28:48.841Z,45.46
2018-09-20T08:31:19.166Z,46.55
2018-09-20T08:33:49.524Z,47.47
2018-09-20T08:36:19.910Z,48.50
2018-09-20T08:38:50.855Z,49.57
2018-09-20T08:41:21.218Z,51.12
2018-09-20T08:43:51.579Z,50.79
2018-09-20T08:46:22.183Z,51.75
2018-09-20T08:48:52.862Z,53.12
2018-09-20T08:51:23.257Z,54.69
2018-09-20T08:53:53.899Z,53.56
2018-09-20T08:56:24.376Z,53.38
2018-09-20T08:58:55.342Z,54.27
2018-09-20T09:01:25.819Z,54.33
2018-09-20T09:03:56.223Z,53.63
2018-09-20T09:06:26.949Z,53.39
2018-09-20T09:08:57.698Z,53.23
2018-09-20T09:11:28.361Z,52.72
2018-09-20T09:13:58.733Z,53.34
2018-09-20T09:16:29.106Z,52.87
2018-09-20T09:18:59.746Z,51.67
2018-09-20T09:21:30.122Z,51.16
2018-09-20T09:24:01.511Z,52.71
2018-09-20T09:26:31.867Z,53.21
2018-09-20T09:29:02.615Z,54.49
2018-09-20T09:31:33.117Z,53.93
2018-09-20T09:34:03.528Z,52.78
2018-09-20T09:36:34.101Z,52.46
2018-09-20T09:39:06.723Z,50.99
2018-09-20T09:41:37.081Z,52.33
2018-09-20T09:44:07.542Z,51.68
2018-09-20T09:46:40.035Z,52.37
2018-09-20T09:49:10.763Z,51.96
2018-09-20T09:51:41.147Z,50.73
2018-09-20T09:54:11.975Z,52.56
2018-09-20T09:56:42.489Z,50.41
2018-09-20T09:59:13.281Z,50.94
2018-09-20T10:01:43.639Z,51.91
2018-09-20T10:04:14.087Z,50.73
2018-09-20T10:06:44.487Z,49.60
2018-09-20T10:09:14.845Z,50.05
2018-09-20T10:11:46.168Z,48.06
2018-09-20T10:14:16.611Z,47.87
2018-09-20T10:20:23.472Z,47.08
2018-09-20T10:22:53.843Z,48.28
2018-09-20T10:25:24.277Z,50.20
2018-09-20T10:27:54.941Z,48.78
2018-09-20T10:30:25.434Z,47.17
2018-09-20T10:32:55.949Z,47.77
2018-09-20T10:35:26.720Z,48.23
2018-09-20T10:37:57.108Z,46.20
2018-09-20T10:40:28.084Z,47.71
2018-09-20T10:42:58.446Z,45.97
2018-09-20T10:45:28.792Z,47.73
2018-09-20T10:47:59.477Z,46.59
2018-09-20T10:50:29.878Z,45.40
2018-09-20T10:53:00.246Z,46.11
2018-09-20T10:55:31.030Z,46.34
2018-09-20T10:58:01.439Z,45.27
2018-09-20T11:00:32.188Z,46.70
2018-09-20T11:03:02.585Z,43.93
2018-09-20T11:05:33.244Z,46.79
2018-09-20T11:08:03.824Z,44.92
2018-09-20T11:10:34.216Z,45.07
2018-09-20T11:13:04.822Z,44.60
2018-09-20T11:15:35.196Z,43.44
2018-09-20T11:18:05.580Z,43.09
2018-09-20T11:20:36.102Z,43.94
2018-09-20T11:23:07.104Z,44.56
2018-09-20T11:25:37.587Z,45.41
2018-09-20T11:28:08.680Z,42.13
2018-09-20T11:30:39.144Z,44.07
2018-09-20T11:33:09.575Z,43.90
2018-09-20T11:35:40.034Z,44.18
2018-09-20T11:38:10.388Z,43.79
2018-09-20T11:40:41.530Z,42.87
2018-09-20T11:43:11.964Z,42.84
2018-09-20T11:45:42.726Z,43.39
2018-09-20T11:48:13.668Z,42.80
2018-09-20T11:50:45.146Z,44.35
2018-09-20T11:53:16.354Z,42.63
2018-09-20T11:55:46.449Z,40.88
2018-09-20T11:58:16.553Z,42.43
2018-09-20T12:00:47.304Z,41.18
2018-09-20T12:03:17.364Z,41.61
2018-09-20T12:05:47.651Z,40.67
2018-09-20T12:08:18.044Z,40.22
2018-09-20T12:10:48.127Z,40.60
2018-09-20T12:13:18.222Z,40.78
2018-09-20T12:15:48.662Z,41.65
2018-09-20T12:18:19.042Z,42.05
2018-09-20T12:20:49.127Z,40.81
2018-09-20T12:23:19.522Z,41.01
2018-09-20T12:25:49.994Z,41.49
2018-09-20T12:28:21.623Z,42.53
2018-09-20T12:30:52.337Z,40.54
2018-09-20T12:33:22.378Z,41.94
2018-09-20T12:35:52.817Z,42.40
2018-09-20T12:38:23.373Z,42.32
2018-09-20T12:40:54.051Z,43.25
2018-09-20T12:43:24.480Z,43.50
2018-09-20T12:45:54.904Z,43.60
2018-09-20T12:48:25.384Z,42.55
2018-09-20T12:50:55.884Z,41.36
2018-09-20T12:53:26.541Z,41.68
2018-09-20T12:55:56.980Z,40.78
2018-09-20T12:58:32.485Z,41.61
2018-09-20T13:01:02.521Z,41.06
2018-09-20T13:03:32.912Z,40.68
2018-09-20T13:06:03.027Z,40.80
2018-09-20T13:08:33.761Z,41.95
2018-09-20T13:11:03.932Z,41.44
2018-09-20T13:13:34.538Z,42.72
2018-09-20T13:16:06.262Z,43.09
2018-09-20T13:18:36.825Z,43.98
2018-09-20T13:21:07.736Z,43.92
2018-09-20T13:23:38.160Z,43.79
2018-09-20T13:26:08.699Z,43.04
2018-09-20T13:28:39.710Z,43.21
2018-09-20T13:31:10.783Z,43.03
2018-09-20T13:33:41.695Z,42.88
2018-09-20T13:36:12.175Z,44.42
2018-09-20T13:38:43.266Z,43.41
2018-09-20T13:41:13.661Z,42.31
2018-09-20T13:43:44.154Z,42.64
2018-09-20T13:46:15.037Z,42.69
2018-09-20T13:48:45.148Z,42.84
2018-09-20T13:51:15.512Z,42.04
2018-09-20T13:53:45.870Z,42.13
2018-09-20T13:56:16.274Z,42.14
2018-09-20T13:58:49.065Z,42.89
2018-09-20T14:01:19.528Z,43.92
2018-09-20T14:03:50.555Z,43.97
2018-09-20T14:06:21.374Z,43.25
2018-09-20T14:08:52.144Z,42.76
2018-09-20T14:11:23.468Z,42.89
2018-09-20T14:13:54.424Z,42.29
2018-09-20T14:16:25.146Z,42.05
2018-09-20T14:18:55.579Z,42.68
2018-09-20T14:21:25.954Z,42.03
2018-09-20T14:23:56.365Z,42.23
2018-09-20T14:26:27.594Z,43.57
2018-09-20T14:28:58.007Z,42.79
2018-09-20T14:31:28.415Z,42.24
2018-09-20T14:33:58.839Z,41.74
2018-09-20T14:36:29.543Z,41.62
2018-09-20T14:39:00.627Z,41.63
2018-09-20T14:41:31.312Z,41.25
2018-09-20T14:44:02.004Z,41.61
2018-09-20T14:46:32.671Z,41.98
2018-09-20T14:49:03.154Z,41.43
2018-09-20T14:51:34.009Z,42.57
2018-09-20T14:54:04.697Z,42.42
2018-09-20T14:56:35.089Z,41.39
2018-09-20T14:59:05.992Z,41.55
2018-09-20T15:01:36.402Z,42.10
2018-09-20T15:04:06.863Z,40.54
2018-09-20T15:06:37.270Z,40.80
2018-09-20T15:09:12.428Z,40.89
2018-09-20T15:11:43.418Z,40.98
2018-09-20T15:14:14.081Z,40.44
2018-09-20T15:16:44.485Z,40.59
2018-09-20T15:19:14.949Z,40.02
2018-09-20T15:21:45.336Z,40.63
2018-09-20T15:24:16.037Z,41.62
2018-09-20T15:26:46.419Z,40.57
2018-09-20T15:29:16.811Z,41.69
2018-09-20T15:31:47.249Z,40.61
2018-09-20T15:34:17.886Z,41.82
2018-09-20T15:36:48.700Z,41.18
2018-09-20T15:39:19.332Z,40.45
2018-09-20T15:41:50.056Z,40.95
2018-09-20T15:44:20.673Z,41.93
2018-09-20T15:46:51.822Z,40.46
2018-09-20T15:49:22.772Z,41.73
2018-09-20T15:51:53.282Z,42.16
2018-09-20T15:54:24.680Z,41.77
2018-09-20T15:56:55.126Z,42.11
2018-09-20T15:59:25.526Z,43.09
2018-09-20T16:01:56.184Z,43.12
2018-09-20T16:04:26.596Z,42.68
2018-09-20T16:06:57.004Z,42.60
2018-09-20T16:09:27.400Z,42.87
2018-09-20T16:11:58.016Z,42.55
2018-09-20T16:14:28.706Z,43.09
2018-09-20T16:17:00.009Z,42.93
2018-09-20T16:19:30.386Z,43.39
2018-09-20T16:22:00.824Z,43.28
2018-09-20T16:24:31.209Z,42.79
2018-09-20T16:27:02.674Z,43.33
2018-09-20T16:29:56.440Z,44.03
2018-09-20T16:33:22.514Z,43.10
2018-09-20T16:36:04.104Z,43.84
2018-09-20T16:38:54.565Z,43.69
2018-09-20T16:41:34.547Z,44.00
2018-09-20T16:44:05.608Z,44.48
2018-09-20T16:46:36.304Z,43.83
2018-09-20T16:49:07.148Z,44.22
2018-09-20T16:51:37.621Z,45.21
2018-09-20T16:54:08.042Z,44.95
2018-09-20T16:56:38.722Z,45.92
2018-09-20T16:59:09.450Z,45.73
2018-09-20T17:01:40.259Z,46.67
2018-09-20T17:04:11.039Z,47.11
2018-09-20T17:06:41.678Z,47.40
2018-09-20T17:09:12.049Z,47.30
2018-09-20T17:11:42.716Z,47.74
2018-09-20T17:14:13.129Z,47.74
2018-09-20T17:16:43.552Z,48.09
2018-09-20T17:19:14.521Z,48.54
2018-09-20T17:21:44.946Z,48.76
2018-09-20T17:24:15.366Z,49.95
2018-09-20T17:26:46.496Z,50.72
2018-09-20T17:29:16.880Z,51.17
2018-09-20T17:35:24.465Z,50.97
2018-09-20T17:37:57.706Z,51.44
2018-09-20T17:40:29.265Z,51.87
2018-09-20T17:43:04.994Z,52.58
2018-09-20T17:45:35.387Z,53.24
2018-09-20T17:48:06.312Z,54.88
2018-09-20T17:50:36.774Z,54.60
2018-09-20T17:53:07.661Z,54.97
2018-09-20T17:55:38.433Z,55.84
2018-09-20T17:58:10.000Z,57.07
2018-09-20T18:00:40.432Z,57.86
2018-09-20T18:03:11.143Z,58.76
2018-09-20T18:05:41.713Z,58.55
2018-09-20T18:08:12.103Z,59.15
2018-09-20T18:10:42.607Z,59.12
2018-09-20T18:13:12.997Z,59.26
2018-09-20T18:15:43.475Z,59.97
2018-09-20T18:18:14.272Z,59.57
2018-09-20T18:20:44.746Z,59.96
2018-09-20T18:23:15.752Z,59.89
2018-09-20T18:25:46.471Z,60.88
2018-09-20T18:28:17.714Z,61.35
2018-09-20T18:30:48.510Z,61.99
2018-09-20T18:33:18.872Z,60.75
2018-09-20T18:35:49.323Z,61.84
2018-09-20T18:38:19.773Z,62.30
2018-09-20T18:40:50.218Z,62.53
2018-09-20T18:43:20.946Z,63.25
2018-09-20T18:45:51.973Z,62.50
2018-09-20T18:48:22.361Z,64.54
2018-09-20T18:50:52.992Z,65.59
2018-09-20T18:53:23.787Z,66.44
2018-09-20T18:55:54.154Z,66.78
2018-09-20T18:58:24.559Z,66.39
2018-09-20T19:00:55.026Z,67.18
2018-09-20T19:03:25.808Z,67.28
2018-09-20T19:05:56.157Z,67.62
2018-09-20T19:08:26.891Z,67.04
2018-09-20T19:10:57.286Z,67.43
2018-09-20T19:13:27.685Z,67.02
2018-09-20T19:15:58.065Z,66.50
2018-09-20T19:18:28.771Z,66.40
2018-09-20T19:20:59.782Z,66.01
2018-09-20T19:23:31.417Z,66.01
2018-09-20T19:26:01.773Z,65.93
2018-09-20T19:28:32.496Z,66.41
2018-09-20T19:31:03.851Z,66.08
2018-09-20T19:33:34.520Z,66.69
2018-09-20T19:36:04.889Z,66.85
2018-09-20T19:38:35.495Z,66.91
2018-09-20T19:41:06.443Z,67.90
2018-09-20T19:43:36.803Z,68.34
2018-09-20T19:46:07.419Z,68.44
2018-09-20T19:48:38.140Z,68.53
2018-09-20T19:51:08.494Z,69.00
2018-09-20T19:53:39.183Z,68.14
2018-09-20T19:56:09.901Z,67.96
2018-09-20T19:58:40.327Z,67.26
2018-09-20T20:01:10.988Z,67.48
2018-09-20T20:03:41.364Z,67.60
2018-09-20T20:06:11.794Z,67.69
2018-09-20T20:08:42.220Z,67.82
2018-09-20T20:11:12.802Z,67.85
2018-09-20T20:13:43.526Z,67.97
2018-09-20T20:16:13.954Z,68.13
2018-09-20T20:18:44.380Z,68.67
2018-09-20T20:21:14.925Z,68.68
2018-09-20T20:23:45.562Z,68.73
2018-09-20T20:26:15.945Z,68.80
2018-09-20T20:28:46.372Z,68.93
2018-09-20T20:31:17.315Z,69.17
2018-09-20T20:34:24.396Z,69.54
2018-09-20T20:36:54.761Z,69.63
2018-09-20T20:39:25.114Z,69.66
2018-09-20T20:41:55.528Z,69.81
2018-09-20T20:44:25.908Z,69.99
2018-09-20T20:46:56.444Z,70.24
2018-09-20T20:49:26.775Z,70.45
2018-09-20T20:51:57.148Z,70.41
2018-09-20T20:54:27.467Z,70.05
2018-09-20T20:56:57.887Z,70.40
2018-09-20T20:59:28.217Z,70.25
2018-09-20T21:01:58.641Z,70.40
2018-09-20T21:04:28.966Z,70.76
2018-09-20T21:06:59.334Z,70.96
2018-09-20T21:09:29.622Z,71.30
2018-09-20T21:12:00.012Z,71.12
2018-09-20T21:14:30.568Z,71.15
2018-09-20T21:17:01.101Z,71.37
2018-09-20T21:19:31.645Z,71.62
2018-09-20T21:22:02.355Z,71.49
2018-09-20T21:24:32.729Z,71.55
2018-09-20T21:27:03.104Z,71.98
2018-09-20T21:29:33.483Z,72.01
2018-09-20T21:32:03.877Z,71.75
2018-09-20T21:34:34.250Z,71.56
2018-09-20T21:37:04.681Z,71.18
2018-09-20T21:39:35.051Z,71.79
2018-09-20T21:42:05.427Z,71.57
2018-09-20T21:44:35.786Z,71.74
2018-09-20T21:47:06.620Z,71.87
2018-09-20T21:49:36.954Z,72.42
2018-09-20T21:52:07.414Z,71.94
2018-09-20T21:54:37.764Z,72.52
2018-09-20T21:57:08.220Z,73.29
2018-09-20T21:59:38.761Z,73.08
2018-09-20T22:02:09.125Z,73.54
2018-09-20T22:04:39.442Z,74.21
2018-09-20T22:07:09.820Z,74.29
2018-09-20T22:09:40.151Z,74.79
2018-09-20T22:12:10.510Z,74.42
2018-09-20T22:14:40.958Z,75.07
2018-09-20T22:17:11.313Z,74.59
2018-09-20T22:19:41.974Z,74.76
2018-09-20T22:22:12.308Z,75.19
2018-09-20T22:24:42.682Z,74.61
2018-09-20T22:27:13.053Z,74.90
2018-09-20T22:29:43.530Z,74.81
2018-09-20T22:32:13.883Z,75.31
2018-09-20T22:34:44.300Z,75.41
2018-09-20T22:37:14.681Z,75.02
2018-09-20T22:39:45.110Z,75.52
2018-09-20T22:42:15.598Z,75.83
2018-09-20T22:44:45.902Z,75.69
2018-09-20T22:47:16.229Z,75.86
2018-09-20T22:49:46.543Z,75.92
2018-09-20T22:52:16.844Z,76.39
2018-09-20T22:54:47.170Z,76.52
2018-09-20T22:57:17.552Z,76.33
2018-09-20T22:59:47.867Z,76.39
2018-09-20T23:02:18.200Z,76.46
2018-09-20T23:04:48.632Z,76.42
2018-09-20T23:07:19.031Z,76.33
2018-09-20T23:09:49.377Z,76.37
2018-09-20T23:12:19.772Z,75.73
2018-09-20T23:14:50.125Z,75.77
2018-09-20T23:17:20.590Z,75.88
2018-09-20T23:19:50.908Z,76.30
2018-09-20T23:22:21.256Z,76.52
2018-09-20T23:24:51.688Z,76.73
2018-09-20T23:27:22.114Z,76.48
2018-09-20T23:29:52.437Z,76.41
2018-09-20T23:32:22.780Z,76.25
2018-09-20T23:34:53.190Z,76.97
2018-09-20T23:37:23.617Z,76.97
2018-09-20T23:39:53.963Z,76.84
2018-09-20T23:42:24.372Z,76.99
2018-09-20T23:44:54.751Z,77.09
2018-09-20T23:47:25.094Z,77.77
2018-09-20T23:49:54.904Z,77.51
2018-09-20T23:52:25.354Z,77.57
2018-09-20T23:54:55.693Z,77.66
2018-09-20T23:57:26.079Z,77.73
2018-09-20T23:59:56.638Z,77.98
